Time;durP1;ratioP1;P1;durP2;ratioP2;P2;SDS_P1;SDS_P2;PMS_P1;PMS_P2;Temp;Humidity;BMP_temperature;BMP_pressure;BME280_temperature;BME280_humidity;BME280_pressure;Samples;Min_cycle;Max_cycle;Signal;HPM_P1;HPM_P2
2023/10/04 00:01:36;;;;;;;6.80;4.70;;;;;;;15.07;100.00;98952.32;137521;1269;22383;-79
2023/10/04 00:04:38;;;;;;;7.10;4.50;;;;;;;15.14;100.00;98960.87;137392;1269;22553;-79
2023/10/04 00:07:39;;;;;;;7.70;4.90;;;;;;;15.02;100.00;98963.38;138003;1269;22191;-79
2023/10/04 00:10:41;;;;;;;8.00;4.50;;;;;;;15.01;100.00;98976.88;137456;1269;22982;-82
2023/10/04 00:13:43;;;;;;;8.50;4.90;;;;;;;15.01;100.00;98971.45;137318;1269;22540;-81
2023/10/04 00:16:45;;;;;;;6.10;4.60;;;;;;;15.03;100.00;98971.79;138007;1269;22483;-82
2023/10/04 00:19:47;;;;;;;9.20;4.80;;;;;;;15.12;100.00;98968.77;137544;1269;22610;-81
2023/10/04 00:22:48;;;;;;;6.70;4.50;;;;;;;15.26;100.00;98973.79;137418;1269;22153;-81
2023/10/04 00:25:49;;;;;;;10.30;5.30;;;;;;;15.44;100.00;98978.61;137629;1269;22541;-82
2023/10/04 00:28:50;;;;;;;9.40;5.10;;;;;;;15.43;100.00;98984.23;137728;1262;22685;-81
2023/10/04 00:31:51;;;;;;;8.00;4.70;;;;;;;15.52;100.00;98985.41;137369;1269;22203;-83
2023/10/04 00:34:54;;;;;;;6.80;4.60;;;;;;;15.58;100.00;98991.35;137316;1269;22523;-82
2023/10/04 00:37:56;;;;;;;12.40;10.20;;;;;;;15.34;100.00;98998.12;137828;1265;22153;-83
2023/10/04 00:40:57;;;;;;;16.80;10.70;;;;;;;15.17;100.00;99012.39;137453;1269;22445;-82
2023/10/04 00:44:01;;;;;;;13.70;12.50;;;;;;;15.07;100.00;99018.57;137408;1269;22886;-82
2023/10/04 00:47:02;;;;;;;8.20;5.60;;;;;;;15.00;100.00;99029.11;137944;1269;22267;-83
2023/10/04 00:50:14;;;;;;;13.60;8.40;;;;;;;14.95;100.00;99039.11;137527;1269;22243;-83
2023/10/04 00:53:15;;;;;;;10.30;9.30;;;;;;;14.90;100.00;99047.18;137465;1269;22259;-82
2023/10/04 00:56:17;;;;;;;19.90;17.80;;;;;;;14.91;100.00;99044.55;137856;1269;22106;-82
2023/10/04 00:59:18;;;;;;;17.70;14.10;;;;;;;14.92;100.00;99043.33;137636;1269;22262;-81
2023/10/04 01:02:19;;;;;;;16.40;13.50;;;;;;;14.90;100.00;99042.28;137385;1269;22287;-82
2023/10/04 01:05:24;;;;;;;14.70;12.00;;;;;;;14.90;100.00;99046.48;137625;1269;22510;-81
2023/10/04 01:08:25;;;;;;;19.50;17.70;;;;;;;14.89;100.00;99053.14;137776;1269;23255;-82
2023/10/04 01:11:26;;;;;;;9.50;5.90;;;;;;;14.89;100.00;99068.91;137249;1269;22424;-82
2023/10/04 01:14:37;;;;;;;10.40;7.70;;;;;;;14.87;100.00;99077.33;137334;1269;22533;-80
2023/10/04 01:17:39;;;;;;;6.30;4.00;;;;;;;14.83;100.00;99075.40;137833;1269;22399;-82
2023/10/04 01:20:40;;;;;;;6.80;3.90;;;;;;;14.77;100.00;99093.64;137239;1269;22543;-81
2023/10/04 01:23:41;;;;;;;5.90;3.60;;;;;;;14.73;100.00;99114.29;137371;1269;22244;-80
2023/10/04 01:26:42;;;;;;;6.80;4.30;;;;;;;14.68;100.00;99119.89;138021;1265;22579;-81
2023/10/04 01:29:44;;;;;;;7.30;4.10;;;;;;;14.64;100.00;99122.86;137575;1269;22527;-79
2023/10/04 01:32:45;;;;;;;6.90;4.10;;;;;;;14.59;100.00;99128.98;137681;1269;22230;-81
2023/10/04 01:35:46;;;;;;;5.60;3.90;;;;;;;14.57;100.00;99130.57;137872;1269;22547;-79
2023/10/04 01:38:48;;;;;;;6.50;4.00;;;;;;;14.55;100.00;99137.40;137410;1269;22810;-81
2023/10/04 01:41:51;;;;;;;5.50;3.70;;;;;;;14.53;100.00;99147.90;137596;1269;22541;-80
2023/10/04 01:44:54;;;;;;;;;;;;;;;14.52;100.00;99155.25;137645;1269;22516;-78
2023/10/04 01:47:55;;;;;;;4.60;3.20;;;;;;;14.49;100.00;99165.23;137880;1269;22185;-79
2023/10/04 01:50:56;;;;;;;8.70;3.90;;;;;;;14.47;100.00;99179.77;137629;1269;22274;-79
2023/10/04 01:53:59;;;;;;;5.30;3.30;;;;;;;14.44;100.00;99186.05;137535;1269;22546;-80
2023/10/04 01:57:00;;;;;;;6.40;3.20;;;;;;;14.41;100.00;99191.64;137963;1269;22131;-80
2023/10/04 02:00:05;;;;;;;5.80;3.30;;;;;;;14.36;100.00;99207.89;137461;1269;22308;-79
2023/10/04 02:03:07;;;;;;;3.60;3.00;;;;;;;14.30;100.00;99223.99;137394;1269;22233;-79
2023/10/04 02:06:09;;;;;;;8.00;2.90;;;;;;;14.23;100.00;99227.30;137633;1269;25276;-83
2023/10/04 02:09:12;;;;;;;7.00;2.80;;;;;;;14.17;100.00;99238.30;137744;1269;22205;-81
2023/10/04 02:12:13;;;;;;;4.60;2.50;;;;;;;14.09;100.00;99250.69;137425;1269;22224;-81
2023/10/04 02:15:15;;;;;;;5.00;2.70;;;;;;;14.00;100.00;99258.18;137323;1269;22541;-80
2023/10/04 02:18:18;;;;;;;6.50;2.70;;;;;;;13.91;100.00;99261.98;137951;1269;22156;-81
2023/10/04 02:21:19;;;;;;;6.50;2.30;;;;;;;13.85;100.00;99270.84;137336;1269;22683;-81
2023/10/04 02:24:21;;;;;;;3.40;2.20;;;;;;;13.78;100.00;99267.65;137254;1269;22575;-82
2023/10/04 02:27:22;;;;;;;5.30;2.00;;;;;;;13.70;100.00;99276.00;137896;1269;22188;-81
2023/10/04 02:30:24;;;;;;;6.20;2.40;;;;;;;13.62;100.00;99274.90;137467;1269;22648;-81
2023/10/04 02:33:32;;;;;;;4.90;2.20;;;;;;;13.52;100.00;99283.23;137281;1269;22254;-81
2023/10/04 02:36:34;;;;;;;4.00;2.70;;;;;;;13.45;100.00;99291.04;137647;1269;22533;-81
2023/10/04 02:39:37;;;;;;;4.50;2.40;;;;;;;13.42;100.00;99303.95;137602;1269;22197;-82
2023/10/04 02:42:38;;;;;;;7.80;3.40;;;;;;;13.38;100.00;99321.06;137429;1269;22104;-82
2023/10/04 02:45:41;;;;;;;2.60;2.00;;;;;;;13.35;100.00;99325.23;137577;1269;22604;-81
2023/10/04 02:48:43;;;;;;;7.20;2.40;;;;;;;13.35;100.00;99327.85;137941;1269;22054;-79
2023/10/04 02:51:45;;;;;;;5.00;2.30;;;;;;;13.33;100.00;99336.06;137498;1269;23031;-80
2023/10/04 02:54:47;;;;;;;5.40;2.70;;;;;;;13.29;100.00;99334.09;137694;1269;22665;-81
2023/10/04 02:57:49;;;;;;;4.30;2.20;;;;;;;13.30;100.00;99340.41;137984;1269;22149;-81
2023/10/04 03:00:50;;;;;;;3.80;2.60;;;;;;;13.39;100.00;99350.61;137500;1268;22280;-82
2023/10/04 03:03:51;;;;;;;5.90;3.40;;;;;;;13.32;100.00;99357.02;137348;1269;22534;-82
2023/10/04 03:06:53;;;;;;;6.10;2.70;;;;;;;13.27;100.00;99366.23;137524;1269;212267;-83
2023/10/04 03:09:58;;;;;;;5.20;3.20;;;;;;;13.18;100.00;99369.27;137619;1269;22220;-83
2023/10/04 03:13:01;;;;;;;5.30;3.00;;;;;;;13.09;100.00;99364.98;137322;1269;22260;-80
2023/10/04 03:16:04;;;;;;;7.00;3.70;;;;;;;12.97;100.00;99371.46;137381;1269;23114;-82
2023/10/04 03:19:06;;;;;;;7.90;2.50;;;;;;;12.86;100.00;99381.13;137814;1269;23097;-82
2023/10/04 03:22:08;;;;;;;5.50;2.70;;;;;;;12.76;100.00;99382.41;137432;1269;22592;-79
2023/10/04 03:25:14;;;;;;;9.50;3.50;;;;;;;12.66;100.00;99390.85;137311;1269;22248;-81
2023/10/04 03:28:16;;;;;;;11.20;3.50;;;;;;;12.57;100.00;99385.33;137851;1269;22275;-80
2023/10/04 03:31:18;;;;;;;6.50;2.70;;;;;;;12.50;100.00;99384.71;137302;1269;22543;-80
2023/10/04 03:34:22;;;;;;;5.70;2.70;;;;;;;12.42;100.00;99390.73;137233;1269;22291;-81
2023/10/04 03:37:30;;;;;;;5.70;2.30;;;;;;;12.33;100.00;99396.72;137977;1269;22453;-80
2023/10/04 03:40:34;;;;;;;4.20;2.50;;;;;;;12.27;100.00;99391.73;137957;1269;22130;-80
2023/10/04 03:43:36;;;;;;;6.50;3.40;;;;;;;12.22;100.00;99402.83;137428;1269;22401;-81
2023/10/04 03:46:39;;;;;;;8.60;3.00;;;;;;;12.18;100.00;99400.69;137485;1269;22909;-80
2023/10/04 03:49:40;;;;;;;7.10;3.00;;;;;;;12.15;100.00;99395.23;137950;1269;22763;-79
2023/10/04 03:52:42;;;;;;;14.50;2.90;;;;;;;12.11;100.00;99400.39;137347;1269;22181;-81
2023/10/04 03:55:43;;;;;;;4.90;2.70;;;;;;;12.09;100.00;99409.77;137457;1269;22530;-81
2023/10/04 03:58:45;;;;;;;5.50;3.20;;;;;;;12.10;100.00;99407.53;137912;1269;22262;-80
2023/10/04 04:01:46;;;;;;;7.10;2.70;;;;;;;12.14;100.00;99406.71;137961;1269;22234;-80
2023/10/04 04:04:48;;;;;;;6.70;2.50;;;;;;;12.21;100.00;99413.98;137645;1269;22830;-82
2023/10/04 04:07:49;;;;;;;7.90;2.50;;;;;;;12.26;100.00;99419.83;137938;1265;22096;-80
2023/10/04 04:10:50;;;;;;;7.70;3.80;;;;;;;12.27;100.00;99420.36;137894;1269;22228;-81
2023/10/04 04:13:51;;;;;;;11.30;2.90;;;;;;;12.27;100.00;99424.02;137458;1268;22272;-81
2023/10/04 04:16:55;;;;;;;10.10;2.70;;;;;;;12.28;100.00;99424.20;137949;1269;22511;-81
2023/10/04 04:19:56;;;;;;;5.40;2.20;;;;;;;12.29;100.00;99429.63;137892;1269;22211;-82
2023/10/04 04:22:57;;;;;;;5.00;2.70;;;;;;;12.36;100.00;99435.31;137899;1269;22367;-83
2023/10/04 04:25:59;;;;;;;5.90;2.80;;;;;;;12.48;100.00;99434.96;137631;1265;22552;-82
2023/10/04 04:29:00;;;;;;;6.60;3.10;;;;;;;12.48;100.00;99445.42;137827;1269;22689;-82
2023/10/04 04:32:05;;;;;;;7.70;3.30;;;;;;;12.46;100.00;99456.58;137799;1269;22444;-80
2023/10/04 04:35:07;;;;;;;6.70;3.10;;;;;;;12.45;100.00;99459.88;137455;1269;23415;-80
2023/10/04 04:38:13;;;;;;;6.10;2.80;;;;;;;12.42;100.00;99460.02;137918;1269;22806;-80
2023/10/04 04:41:18;;;;;;;6.00;3.30;;;;;;;12.41;100.00;99466.29;137916;1269;22605;-78
2023/10/04 04:44:27;;;;;;;7.60;3.30;;;;;;;12.87;100.00;99470.41;137220;1269;22236;-80
2023/10/04 04:47:28;;;;;;;9.90;3.60;;;;;;;13.09;100.00;99475.06;137343;1269;22561;-83
2023/10/04 04:50:29;;;;;;;10.70;3.20;;;;;;;13.47;100.00;99471.82;137876;1269;22191;-82
2023/10/04 04:53:33;;;;;;;5.20;2.90;;;;;;;14.23;100.00;99479.36;137940;1269;22732;-82
2023/10/04 04:56:35;;;;;;;13.30;3.60;;;;;;;14.73;100.00;99481.48;137950;1269;22204;-82
2023/10/04 04:59:39;;;;;;;10.40;2.90;;;;;;;14.49;100.00;99483.95;137956;1269;22313;-82
2023/10/04 05:02:41;;;;;;;9.10;5.10;;;;;;;14.81;100.00;99488.52;137685;1269;22539;-80
2023/10/04 05:05:42;;;;;;;5.00;2.90;;;;;;;14.60;100.00;99499.95;137498;1265;22218;-82
2023/10/04 05:08:44;;;;;;;7.00;3.30;;;;;;;14.49;100.00;99503.91;137939;1269;22242;-83
2023/10/04 05:11:45;;;;;;;8.10;3.20;;;;;;;14.31;100.00;99512.69;137936;1269;22112;-82
2023/10/04 05:14:46;;;;;;;11.50;3.10;;;;;;;13.89;100.00;99527.54;137962;1269;22211;-79
2023/10/04 05:17:50;;;;;;;6.30;3.30;;;;;;;13.84;100.00;99529.07;137948;1269;22224;-81
2023/10/04 05:20:54;;;;;;;7.90;3.00;;;;;;;13.99;100.00;99540.42;137922;1269;22124;-81
2023/10/04 05:23:55;;;;;;;7.60;2.70;;;;;;;13.63;100.00;99545.27;137881;1269;22163;-79
2023/10/04 05:26:57;;;;;;;6.20;2.70;;;;;;;13.24;100.00;99546.22;137579;1269;22302;-84
2023/10/04 05:29:58;;;;;;;8.50;2.50;;;;;;;13.12;100.00;99559.17;137915;1265;23000;-83
2023/10/04 05:32:59;;;;;;;27.80;3.20;;;;;;;13.21;100.00;99554.91;137893;1269;22215;-80
2023/10/04 05:36:01;;;;;;;9.90;2.90;;;;;;;13.64;100.00;99557.88;137934;1269;22348;-81
2023/10/04 05:39:03;;;;;;;15.20;3.50;;;;;;;13.63;100.00;99558.38;137819;1269;22198;-83
2023/10/04 05:42:05;;;;;;;5.60;2.90;;;;;;;14.01;100.00;99563.36;137826;1269;22401;-83
2023/10/04 05:45:08;;;;;;;11.50;3.20;;;;;;;14.14;100.00;99565.41;137947;1269;22202;-83
2023/10/04 05:48:09;;;;;;;13.80;3.60;;;;;;;14.86;100.00;99561.45;137664;1269;22311;-83
2023/10/04 05:51:10;;;;;;;9.90;3.50;;;;;;;15.11;100.00;99555.46;137721;1269;22554;-82
2023/10/04 05:54:11;;;;;;;11.10;3.00;;;;;;;14.93;100.00;99559.75;137603;1269;22204;-83
2023/10/04 05:57:12;;;;;;;15.30;3.60;;;;;;;14.95;100.00;99563.61;137594;1269;22232;-82
2023/10/04 06:00:24;;;;;;;8.40;3.20;;;;;;;15.43;100.00;99559.11;137595;1269;22537;-83
2023/10/04 06:03:25;;;;;;;12.10;3.80;;;;;;;15.91;100.00;99568.07;137763;1269;22891;-83
2023/10/04 06:06:26;;;;;;;9.50;3.60;;;;;;;15.77;100.00;99583.30;137438;1269;22261;-84
2023/10/04 06:09:29;;;;;;;13.00;3.10;;;;;;;16.00;100.00;99588.44;137465;1269;22569;-83
2023/10/04 06:12:30;;;;;;;11.40;3.20;;;;;;;16.28;100.00;99597.09;137624;1267;22252;-82
2023/10/04 06:15:32;;;;;;;11.60;3.90;;;;;;;16.03;100.00;99603.38;137686;1269;22452;-81
2023/10/04 06:18:33;;;;;;;10.40;3.30;;;;;;;15.95;100.00;99607.56;137650;1269;23707;-82
2023/10/04 06:21:34;;;;;;;14.70;3.30;;;;;;;15.79;100.00;99615.60;137961;1269;22426;-81
2023/10/04 06:24:35;;;;;;;23.10;3.60;;;;;;;16.35;100.00;99619.75;138100;1269;22223;-82
2023/10/04 06:27:38;;;;;;;17.00;3.60;;;;;;;16.73;100.00;99629.48;137694;1269;22568;-83
2023/10/04 06:30:42;;;;;;;18.80;3.90;;;;;;;16.27;100.00;99635.02;137970;1269;22355;-84
2023/10/04 06:33:43;;;;;;;15.80;3.50;;;;;;;16.01;100.00;99637.42;138011;1269;22674;-82
2023/10/04 06:36:44;;;;;;;11.70;3.00;;;;;;;15.79;100.00;99642.98;138016;1269;22304;-82
2023/10/04 06:39:45;;;;;;;7.20;3.40;;;;;;;15.64;100.00;99639.39;137942;1269;22104;-83
2023/10/04 06:42:47;;;;;;;13.80;3.10;;;;;;;15.38;100.00;99647.29;137946;1269;22205;-84
2023/10/04 06:45:49;;;;;;;11.40;3.60;;;;;;;15.83;100.00;99641.59;137882;1269;22153;-83
2023/10/04 06:48:51;;;;;;;12.50;4.10;;;;;;;16.06;100.00;99640.08;137916;1269;22197;-82
2023/10/04 06:51:52;;;;;;;9.80;3.10;;;;;;;16.02;100.00;99651.65;137947;1269;22299;-82
2023/10/04 06:54:54;;;;;;;11.30;3.30;;;;;;;15.99;100.00;99650.59;137584;1269;22245;-83
2023/10/04 06:57:55;;;;;;;8.50;3.30;;;;;;;15.65;100.00;99659.22;137932;1269;22530;-84
2023/10/04 07:00:57;;;;;;;20.80;4.20;;;;;;;15.43;100.00;99656.96;137924;1266;22227;-83
2023/10/04 07:03:58;;;;;;;13.60;3.60;;;;;;;15.59;100.00;99656.73;137908;1269;22226;-83
2023/10/04 07:07:00;;;;;;;11.50;3.80;;;;;;;15.78;100.00;99658.94;137886;1269;22215;-83
2023/10/04 07:10:01;;;;;;;6.90;3.50;;;;;;;15.85;100.00;99656.52;137884;1269;22134;-82
2023/10/04 07:13:03;;;;;;;13.40;4.40;;;;;;;15.82;100.00;99653.86;137896;1269;22192;-82
2023/10/04 07:16:04;;;;;;;10.70;3.90;;;;;;;16.00;100.00;99653.40;137903;1269;23012;-82
2023/10/04 07:19:06;;;;;;;10.60;3.20;;;;;;;16.27;100.00;99646.27;137891;1269;22116;-82
2023/10/04 07:22:07;;;;;;;9.30;3.00;;;;;;;16.40;100.00;99645.94;137928;1269;22173;-81
2023/10/04 07:25:10;;;;;;;6.80;2.50;;;;;;;16.49;100.00;99651.59;137925;1269;22460;-82
2023/10/04 07:28:11;;;;;;;5.20;2.80;;;;;;;16.54;100.00;99649.66;137927;1269;22275;-82
2023/10/04 07:31:12;;;;;;;6.10;2.80;;;;;;;16.31;100.00;99653.64;137903;1269;22366;-81
2023/10/04 07:34:13;;;;;;;9.50;3.00;;;;;;;16.12;100.00;99656.42;137942;1269;22223;-83
2023/10/04 07:37:15;;;;;;;9.80;3.10;;;;;;;16.16;100.00;99660.11;137924;1269;22676;-81
2023/10/04 07:40:16;;;;;;;7.80;3.20;;;;;;;16.46;100.00;99661.93;137819;1269;22234;-82
2023/10/04 07:43:18;;;;;;;6.20;2.90;;;;;;;16.39;100.00;99664.91;137912;1269;22393;-82
2023/10/04 07:46:19;;;;;;;7.20;2.60;;;;;;;16.15;100.00;99671.34;137937;1269;22224;-82
2023/10/04 07:49:20;;;;;;;5.40;2.80;;;;;;;15.96;100.00;99658.83;137916;1267;22121;-82
2023/10/04 07:52:21;;;;;;;15.30;3.20;;;;;;;15.85;100.00;99676.52;137960;1269;22236;-82
2023/10/04 07:55:24;;;;;;;7.90;2.50;;;;;;;15.66;100.00;99679.24;137900;1269;22857;-84
2023/10/04 07:58:25;;;;;;;8.60;2.70;;;;;;;15.65;100.00;99684.50;137989;1269;22957;-83
2023/10/04 08:01:26;;;;;;;7.60;3.00;;;;;;;15.74;100.00;99686.30;137893;1269;22214;-82
2023/10/04 08:04:28;;;;;;;7.70;3.00;;;;;;;15.74;100.00;99689.81;137970;1269;22517;-82
2023/10/04 08:07:29;;;;;;;7.60;3.00;;;;;;;15.66;100.00;99687.67;137866;1269;22527;-81
2023/10/04 08:10:30;;;;;;;8.30;2.90;;;;;;;15.71;100.00;99693.31;137951;1269;22652;-82
2023/10/04 08:13:31;;;;;;;10.80;2.60;;;;;;;15.55;100.00;99691.26;137982;1269;22211;-81
2023/10/04 08:16:33;;;;;;;8.50;2.40;;;;;;;15.23;100.00;99685.60;137912;1269;22791;-81
2023/10/04 08:19:34;;;;;;;6.00;2.80;;;;;;;15.03;100.00;99687.92;137905;1269;22192;-81
2023/10/04 08:22:36;;;;;;;6.50;2.60;;;;;;;15.21;100.00;99682.79;137927;1269;22166;-81
2023/10/04 08:25:39;;;;;;;6.50;2.50;;;;;;;15.41;100.00;99685.38;137928;1269;22255;-81
2023/10/04 08:28:41;;;;;;;7.50;2.80;;;;;;;15.51;100.00;99684.37;137939;1269;22220;-82
2023/10/04 08:31:43;;;;;;;6.60;2.70;;;;;;;15.49;100.00;99687.34;137881;1264;22200;-81
2023/10/04 08:34:45;;;;;;;7.80;2.30;;;;;;;15.64;100.00;99684.85;137862;1269;22727;-82
2023/10/04 08:37:48;;;;;;;9.70;3.00;;;;;;;15.88;100.00;99682.85;137873;1269;22150;-80
2023/10/04 08:40:49;;;;;;;7.40;2.90;;;;;;;16.04;100.00;99691.34;137917;1269;22178;-80
2023/10/04 08:43:51;;;;;;;9.00;2.70;;;;;;;15.88;100.00;99706.02;137926;1269;22359;-80
2023/10/04 08:46:55;;;;;;;4.60;2.10;;;;;;;15.77;100.00;99699.30;137915;1269;22257;-80
2023/10/04 08:49:56;;;;;;;7.20;3.10;;;;;;;15.84;100.00;99700.04;137926;1269;22232;-81
2023/10/04 08:52:57;;;;;;;5.30;2.40;;;;;;;15.88;100.00;99707.25;137911;1269;22217;-80
2023/10/04 08:55:58;;;;;;;25.80;3.40;;;;;;;15.98;100.00;99702.73;137924;1269;22125;-80
2023/10/04 08:59:00;;;;;;;8.30;2.50;;;;;;;15.88;100.00;99714.96;137918;1269;22170;-81
2023/10/04 09:02:01;;;;;;;7.10;2.70;;;;;;;16.01;100.00;99705.54;137904;1269;22692;-80
2023/10/04 09:05:04;;;;;;;8.20;3.00;;;;;;;16.24;100.00;99701.58;137875;1269;22207;-80
2023/10/04 09:08:05;;;;;;;8.20;2.90;;;;;;;16.30;100.00;99698.25;137918;1269;22165;-79
2023/10/04 09:11:10;;;;;;;8.60;2.40;;;;;;;16.20;100.00;99700.86;137934;1269;22184;-80
2023/10/04 09:14:11;;;;;;;7.20;2.80;;;;;;;16.08;100.00;99711.54;137911;1269;22220;-79
2023/10/04 09:17:14;;;;;;;14.60;2.90;;;;;;;16.09;100.00;99701.70;137913;1269;22310;-81
2023/10/04 09:20:15;;;;;;;6.80;2.80;;;;;;;16.57;100.00;99701.67;137909;1269;22116;-82
2023/10/04 09:23:17;;;;;;;8.60;2.50;;;;;;;16.77;100.00;99712.27;137885;1269;22248;-81
2023/10/04 09:26:18;;;;;;;7.00;2.70;;;;;;;16.64;100.00;99709.60;137942;1269;22188;-80
2023/10/04 09:29:20;;;;;;;15.60;3.00;;;;;;;16.71;100.00;99706.63;137774;1267;23027;-82
2023/10/04 09:32:21;;;;;;;9.80;3.00;;;;;;;17.05;100.00;99702.06;137954;1269;22211;-83
2023/10/04 09:35:25;;;;;;;10.90;3.00;;;;;;;17.29;100.00;99705.02;137991;1269;22124;-83
2023/10/04 09:38:29;;;;;;;8.50;3.10;;;;;;;17.28;71.18;99705.92;138024;1269;22213;-82
2023/10/04 09:41:32;;;;;;;9.60;3.00;;;;;;;17.56;63.38;99697.09;138001;1269;22161;-82
2023/10/04 09:44:35;;;;;;;19.80;4.50;;;;;;;17.94;64.37;99701.21;137943;1269;22540;-82
2023/10/04 09:47:37;;;;;;;11.60;2.90;;;;;;;18.22;62.40;99702.86;137979;1269;22262;-83
2023/10/04 09:50:39;;;;;;;7.50;3.00;;;;;;;18.27;61.65;99699.48;137983;1269;22290;-82
2023/10/04 09:53:41;;;;;;;10.50;2.60;;;;;;;18.55;61.05;99697.02;137949;1269;22110;-81
2023/10/04 09:56:42;;;;;;;8.10;2.60;;;;;;;18.73;61.18;99701.14;137909;1269;22219;-83
2023/10/04 09:59:43;;;;;;;6.00;2.50;;;;;;;18.78;59.16;99703.41;137992;1269;22261;-83
2023/10/04 10:02:45;;;;;;;7.30;2.50;;;;;;;18.59;58.58;99700.17;137766;1269;22209;-81
2023/10/04 10:05:46;;;;;;;11.90;3.30;;;;;;;18.62;60.22;99694.52;137928;1269;22166;-82
2023/10/04 10:08:47;;;;;;;8.20;2.50;;;;;;;19.09;60.54;99689.41;137933;1269;22291;-83
2023/10/04 10:11:52;;;;;;;5.10;2.70;;;;;;;19.25;58.60;99696.68;137988;1269;22269;-83
2023/10/04 10:14:55;;;;;;;8.90;3.10;;;;;;;19.15;58.73;99690.77;137980;1269;22152;-83
2023/10/04 10:17:56;;;;;;;9.90;2.80;;;;;;;19.31;59.26;99691.52;137987;1269;22245;-83
2023/10/04 10:20:59;;;;;;;7.80;2.70;;;;;;;19.09;58.46;99692.59;137999;1269;22133;-82
2023/10/04 10:24:03;;;;;;;12.80;3.30;;;;;;;18.87;59.30;99696.81;137998;1269;22396;-82
2023/10/04 10:27:06;;;;;;;12.30;3.30;;;;;;;18.82;59.62;99693.51;137882;1269;22269;-82
2023/10/04 10:30:08;;;;;;;7.60;2.50;;;;;;;18.66;58.34;99698.02;137692;1269;23101;-83
2023/10/04 10:33:12;;;;;;;7.40;2.70;;;;;;;18.63;58.34;99695.93;137665;1269;22523;-84
2023/10/04 10:36:13;;;;;;;6.20;2.50;;;;;;;18.72;58.17;99696.93;137408;1269;22715;-81
2023/10/04 10:39:15;;;;;;;11.10;2.90;;;;;;;18.68;57.22;99699.61;137580;1269;22570;-83
2023/10/04 10:42:20;;;;;;;7.40;2.50;;;;;;;18.70;58.37;99694.83;138039;1269;22323;-82
2023/10/04 10:45:21;;;;;;;8.90;2.90;;;;;;;18.87;58.91;99694.70;137820;1269;22249;-81
2023/10/04 10:48:23;;;;;;;23.00;3.70;;;;;;;19.43;59.88;99689.09;137873;1269;22553;-82
2023/10/04 10:51:24;;;;;;;9.90;3.00;;;;;;;19.65;57.86;99686.23;138019;1262;22288;-81
2023/10/04 10:54:26;;;;;;;8.80;2.70;;;;;;;19.56;56.72;99684.21;137724;1269;25263;-82
2023/10/04 10:57:30;;;;;;;6.10;3.10;;;;;;;19.59;56.24;99683.13;138031;1269;22533;-82
2023/10/04 11:00:32;;;;;;;10.30;3.40;;;;;;;19.51;56.30;99680.71;137752;1269;22480;-80
2023/10/04 11:03:33;;;;;;;8.30;2.90;;;;;;;19.49;54.86;99679.33;137956;1255;22266;-84
2023/10/04 11:06:35;;;;;;;7.00;2.70;;;;;;;19.43;54.70;99679.73;138114;1261;22377;-81
2023/10/04 11:09:39;;;;;;;8.40;3.00;;;;;;;19.53;55.30;99673.11;138064;1269;22220;-81
2023/10/04 11:12:42;;;;;;;6.90;2.80;;;;;;;19.82;55.97;99663.08;138115;1269;22306;-81
2023/10/04 11:15:44;;;;;;;12.20;5.00;;;;;;;19.92;54.51;99662.23;138148;1269;22257;-81
2023/10/04 11:18:47;;;;;;;8.50;2.30;;;;;;;19.96;53.52;99665.20;138117;1269;22679;-81
2023/10/04 11:21:48;;;;;;;10.00;3.00;;;;;;;19.90;53.94;99660.31;138045;1265;22231;-81
2023/10/04 11:24:50;;;;;;;6.60;2.80;;;;;;;19.95;53.31;99662.73;138020;1269;22511;-81
2023/10/04 11:27:51;;;;;;;7.70;2.50;;;;;;;19.83;52.96;99666.41;138019;1269;22297;-80
2023/10/04 11:30:55;;;;;;;11.80;2.70;;;;;;;19.68;52.47;99670.29;138067;1269;22701;-83
2023/10/04 11:33:59;;;;;;;6.60;2.60;;;;;;;19.29;52.58;99665.92;137996;1269;22248;-82
2023/10/04 11:37:03;;;;;;;6.30;2.80;;;;;;;19.16;53.60;99665.38;138006;1269;22304;-82
2023/10/04 11:40:05;;;;;;;5.70;2.80;;;;;;;19.25;53.56;99676.21;137960;1269;22299;-82
2023/10/04 11:43:08;;;;;;;16.90;2.70;;;;;;;19.02;53.39;99672.36;137822;1269;22185;-82
2023/10/04 11:46:10;;;;;;;6.80;2.60;;;;;;;18.67;52.94;99685.49;137955;1269;22569;-82
2023/10/04 11:49:11;;;;;;;12.70;6.00;;;;;;;18.72;53.81;99684.59;137960;1269;22344;-82
2023/10/04 11:52:13;;;;;;;27.30;13.70;;;;;;;19.03;53.62;99682.41;137976;1265;22304;-82
2023/10/04 11:55:14;;;;;;;7.30;3.60;;;;;;;19.23;53.67;99681.17;137983;1269;22224;-81
2023/10/04 11:58:15;;;;;;;6.50;2.70;;;;;;;19.37;53.26;99679.44;137968;1269;22418;-81
2023/10/04 12:01:16;;;;;;;15.80;4.30;;;;;;;19.48;52.51;99680.56;137800;1269;22381;-82
2023/10/04 12:04:18;;;;;;;7.80;3.10;;;;;;;19.62;51.66;99679.38;138006;1262;22373;-81
2023/10/04 12:07:19;;;;;;;6.00;2.40;;;;;;;19.58;51.94;99685.42;137940;1269;22494;-82
2023/10/04 12:10:22;;;;;;;14.30;8.80;;;;;;;19.37;51.99;99683.68;137918;1269;22660;-82
2023/10/04 12:13:23;;;;;;;12.00;6.90;;;;;;;18.86;52.97;99676.02;137903;1269;22556;-84
2023/10/04 12:16:25;;;;;;;8.20;3.50;;;;;;;18.76;53.95;99672.58;137717;1257;22220;-84
2023/10/04 12:19:26;;;;;;;6.70;2.60;;;;;;;18.93;53.58;99668.20;137923;1269;22233;-81
2023/10/04 12:22:27;;;;;;;5.70;2.70;;;;;;;19.09;53.65;99664.71;137864;1269;22229;-81
2023/10/04 12:25:29;;;;;;;8.70;2.90;;;;;;;19.02;53.62;99671.30;137751;1269;22106;-83
2023/10/04 12:28:30;;;;;;;11.40;4.70;;;;;;;18.92;53.84;99666.43;137915;1269;22190;-82
2023/10/04 12:31:31;;;;;;;10.20;4.70;;;;;;;19.07;53.93;99656.96;137680;1264;22247;-83
2023/10/04 12:34:32;;;;;;;5.80;2.80;;;;;;;19.29;53.78;99661.70;137775;1269;22132;-82
2023/10/04 12:37:34;;;;;;;7.30;2.80;;;;;;;19.29;52.74;99665.41;137772;1269;22224;-83
2023/10/04 12:40:35;;;;;;;5.40;2.70;;;;;;;18.87;53.04;99666.83;137888;1269;22218;-83
2023/10/04 12:43:36;;;;;;;10.20;2.90;;;;;;;18.60;53.89;99667.73;137917;1269;22078;-84
2023/10/04 12:46:38;;;;;;;8.90;2.60;;;;;;;18.72;53.51;99671.73;137930;1257;22178;-83
2023/10/04 12:49:42;;;;;;;7.40;2.60;;;;;;;18.70;53.62;99674.03;137949;1269;22357;-83
2023/10/04 12:52:44;;;;;;;4.20;2.60;;;;;;;18.67;53.26;99681.10;137787;1269;22822;-83
2023/10/04 12:55:45;;;;;;;9.90;2.50;;;;;;;18.60;53.72;99677.45;137609;1269;22265;-83
2023/10/04 12:58:47;;;;;;;8.50;3.00;;;;;;;18.52;54.04;99680.29;137979;1269;22315;-82
2023/10/04 13:01:48;;;;;;;7.70;2.70;;;;;;;18.45;54.81;99679.46;138004;1269;22164;-83
2023/10/04 13:04:51;;;;;;;6.10;2.70;;;;;;;18.23;54.42;99683.64;138001;1269;22084;-83
2023/10/04 13:07:52;;;;;;;9.50;3.80;;;;;;;17.91;55.17;99673.92;138000;1269;22234;-83
2023/10/04 13:10:55;;;;;;;12.20;3.00;;;;;;;17.67;56.30;99684.75;137996;1269;22259;-83
2023/10/04 13:13:56;;;;;;;7.60;3.50;;;;;;;17.50;57.16;99685.66;137991;1269;22187;-83
2023/10/04 13:16:58;;;;;;;8.40;3.90;;;;;;;17.46;58.14;99681.80;137970;1269;22322;-83
2023/10/04 13:19:59;;;;;;;6.40;3.00;;;;;;;17.51;57.42;99689.36;137979;1269;22203;-84
2023/10/04 13:23:01;;;;;;;9.00;3.60;;;;;;;17.16;57.77;99689.58;137960;1269;22690;-85
2023/10/04 13:26:02;;;;;;;6.80;2.80;;;;;;;16.93;58.76;99690.30;137659;1269;22502;-83
2023/10/04 13:29:09;;;;;;;9.60;3.00;;;;;;;17.09;59.10;99690.45;137900;1269;22297;-81
2023/10/04 13:32:10;;;;;;;8.10;3.10;;;;;;;17.22;59.32;99690.63;137984;1269;22127;-84
2023/10/04 13:35:12;;;;;;;9.60;3.00;;;;;;;17.49;59.62;99684.61;137960;1269;22217;-82
2023/10/04 13:38:17;;;;;;;5.50;2.70;;;;;;;17.64;58.97;99683.52;137932;1269;22396;-84
2023/10/04 13:41:18;;;;;;;7.50;2.80;;;;;;;17.83;59.20;99675.72;137885;1269;22602;-82
2023/10/04 13:44:19;;;;;;;6.40;2.50;;;;;;;17.99;58.64;99664.91;137959;1269;22733;-83
2023/10/04 13:47:20;;;;;;;9.40;2.90;;;;;;;18.17;59.00;99660.07;137991;1269;22198;-85
2023/10/04 13:50:24;;;;;;;15.60;3.60;;;;;;;18.34;57.41;99664.04;137989;1267;22169;-85
2023/10/04 13:53:26;;;;;;;11.60;3.60;;;;;;;18.36;57.62;99657.50;138006;1269;22320;-84
2023/10/04 13:56:27;;;;;;;33.60;4.80;;;;;;;18.46;57.80;99651.27;137973;1269;22698;-83